createdAt,value
2022-09-09T00:02:29.302Z,5.40
2022-09-09T00:05:21.436Z,5.30
2022-09-09T00:08:00.553Z,5.57
2022-09-09T00:13:55.399Z,5.33
2022-09-09T00:16:32.362Z,5.07
2022-09-09T00:19:23.423Z,5.32
2022-09-09T00:22:20.231Z,6.55
2022-09-09T00:25:06.765Z,4.68
2022-09-09T00:27:47.612Z,5.20
2022-09-09T00:30:25.169Z,4.80
2022-09-09T00:36:00.402Z,5.00
2022-09-09T00:38:54.267Z,5.13
2022-09-09T00:41:45.718Z,5.13
2022-09-09T00:44:31.761Z,5.25
2022-09-09T00:47:18.411Z,4.85
2022-09-09T00:50:20.608Z,5.47
2022-09-09T00:53:17.552Z,5.13
2022-09-09T00:56:23.891Z,5.25
2022-09-09T00:59:27.814Z,4.97
2022-09-09T01:02:00.638Z,4.68
2022-09-09T01:04:38.502Z,4.53
2022-09-09T01:07:21.347Z,5.43
2022-09-09T01:09:54.947Z,6.00
2022-09-09T01:12:29.177Z,7.10
2022-09-09T01:15:26.892Z,6.55
2022-09-09T01:18:03.634Z,6.57
2022-09-09T01:20:54.176Z,5.47
2022-09-09T01:26:46.603Z,5.28
2022-09-09T01:29:29.512Z,7.80
2022-09-09T01:32:36.481Z,6.03
2022-09-09T01:35:10.037Z,6.35
2022-09-09T01:40:11.821Z,7.95
2022-09-09T01:45:28.319Z,8.35
2022-09-09T01:47:59.993Z,7.28
2022-09-09T01:50:50.677Z,9.30
2022-09-09T01:53:24.053Z,8.15
2022-09-09T01:56:18.689Z,8.65
2022-09-09T01:59:22.409Z,7.05
2022-09-09T02:02:16.314Z,7.85
2022-09-09T02:05:17.717Z,7.30
2022-09-09T02:07:54.331Z,7.68
2022-09-09T02:11:20.173Z,10.07
2022-09-09T02:14:21.900Z,6.72
2022-09-09T02:17:02.011Z,8.35
2022-09-09T02:19:51.945Z,7.63
2022-09-09T02:22:42.979Z,7.35
2022-09-09T02:25:18.234Z,7.22
2022-09-09T02:27:52.740Z,8.30
2022-09-09T02:30:26.664Z,7.93
2022-09-09T02:33:03.769Z,6.90
2022-09-09T02:36:05.649Z,7.93
2022-09-09T02:38:42.152Z,8.15
2022-09-09T02:41:16.830Z,7.55
2022-09-09T02:43:47.583Z,6.97
2022-09-09T02:46:41.879Z,7.13
2022-09-09T02:49:13.243Z,7.93
2022-09-09T02:52:04.499Z,8.25
2022-09-09T02:54:41.237Z,7.53
2022-09-09T02:57:22.335Z,8.02
2022-09-09T02:59:57.320Z,9.50
2022-09-09T03:02:28.492Z,7.78
2022-09-09T03:05:04.896Z,7.10
2022-09-09T03:07:35.810Z,7.85
2022-09-09T03:10:26.765Z,8.05
2022-09-09T03:13:17.552Z,7.50
2022-09-09T03:15:48.413Z,8.35
2022-09-09T03:18:22.897Z,8.05
2022-09-09T03:20:56.592Z,7.20
2022-09-09T03:23:27.334Z,8.40
2022-09-09T03:25:59.368Z,10.30
2022-09-09T03:28:41.649Z,8.45
2022-09-09T03:33:44.931Z,7.30
2022-09-09T03:36:18.223Z,7.20
2022-09-09T03:38:49.327Z,7.25
2022-09-09T03:41:21.437Z,7.88
2022-09-09T03:43:56.745Z,8.07
2022-09-09T03:46:29.314Z,8.15
2022-09-09T03:49:19.767Z,6.78
2022-09-09T03:51:51.503Z,6.78
2022-09-09T03:54:23.883Z,6.80
2022-09-09T03:56:55.129Z,7.53
2022-09-09T03:59:28.017Z,8.00
2022-09-09T04:02:01.393Z,7.28
2022-09-09T04:04:52.052Z,7.50
2022-09-09T04:07:23.803Z,7.57
2022-09-09T04:09:56.825Z,7.25
2022-09-09T04:12:27.610Z,7.13
2022-09-09T04:14:59.240Z,7.15
2022-09-09T04:17:32.497Z,7.18
2022-09-09T04:20:03.813Z,6.70
2022-09-09T04:22:34.652Z,8.93
2022-09-09T04:25:05.948Z,7.05
2022-09-09T04:27:36.645Z,7.63
2022-09-09T04:30:08.593Z,7.35
2022-09-09T04:32:40.348Z,8.43
2022-09-09T04:35:11.182Z,8.75
2022-09-09T04:37:41.857Z,7.38
2022-09-09T04:40:13.031Z,7.40
2022-09-09T04:42:46.186Z,7.38
2022-09-09T04:45:18.203Z,7.63
2022-09-09T04:47:51.447Z,7.85
2022-09-09T04:50:22.536Z,7.95
2022-09-09T04:53:03.046Z,7.78
2022-09-09T04:55:38.217Z,7.18
2022-09-09T04:58:11.083Z,7.75
2022-09-09T05:00:42.633Z,9.85
2022-09-09T05:03:33.018Z,7.05
2022-09-09T05:06:12.274Z,7.13
2022-09-09T05:08:44.296Z,7.32
2022-09-09T05:11:26.505Z,7.60
2022-09-09T05:14:01.349Z,7.00
2022-09-09T05:16:35.680Z,8.20
2022-09-09T05:19:07.426Z,7.40
2022-09-09T05:21:49.196Z,7.38
2022-09-09T05:24:22.709Z,7.22
2022-09-09T05:26:56.037Z,9.18
2022-09-09T05:29:27.173Z,7.20
2022-09-09T05:32:00.765Z,7.72
2022-09-09T05:34:31.612Z,6.97
2022-09-09T05:37:02.305Z,7.47
2022-09-09T05:39:33.347Z,7.72
2022-09-09T05:42:06.456Z,8.18
2022-09-09T05:44:37.759Z,7.25
2022-09-09T05:47:08.682Z,7.28
2022-09-09T05:49:39.201Z,7.55
2022-09-09T05:52:13.809Z,10.60
2022-09-09T05:55:06.888Z,7.53
2022-09-09T05:57:40.496Z,9.57
2022-09-09T06:00:24.091Z,8.43
2022-09-09T06:02:55.829Z,8.13
2022-09-09T06:05:29.541Z,12.15
2022-09-09T06:08:01.822Z,9.48
2022-09-09T06:10:32.669Z,8.40
2022-09-09T06:13:03.566Z,8.00
2022-09-09T06:15:35.759Z,8.70
2022-09-09T06:21:03.881Z,7.90
2022-09-09T06:23:36.793Z,9.02
2022-09-09T06:28:40.493Z,7.78
2022-09-09T06:31:13.162Z,7.82
2022-09-09T06:33:46.428Z,7.88
2022-09-09T06:36:19.255Z,8.18
2022-09-09T06:42:10.831Z,10.82
2022-09-09T06:45:10.875Z,11.02
2022-09-09T06:47:49.397Z,10.68
2022-09-09T06:50:20.428Z,11.40
2022-09-09T06:52:53.877Z,10.73
2022-09-09T06:58:13.709Z,10.15
2022-09-09T07:00:44.639Z,11.85
2022-09-09T07:03:15.394Z,11.75
2022-09-09T07:12:02.381Z,14.23
2022-09-09T07:14:39.595Z,12.82
2022-09-09T07:17:12.357Z,10.23
2022-09-09T07:19:45.390Z,13.02
2022-09-09T07:22:48.712Z,13.77
2022-09-09T07:25:48.212Z,11.73
2022-09-09T07:28:20.423Z,12.15
2022-09-09T07:31:06.140Z,11.48
2022-09-09T07:33:39.444Z,11.63
2022-09-09T07:39:04.631Z,9.70
2022-09-09T07:42:01.256Z,13.65
2022-09-09T07:44:32.022Z,13.18
2022-09-09T07:47:13.336Z,9.77
2022-09-09T07:49:48.552Z,12.45
2022-09-09T07:52:22.757Z,11.60
2022-09-09T07:55:01.330Z,12.48
2022-09-09T07:57:33.500Z,12.07
2022-09-09T08:00:07.760Z,15.68
2022-09-09T08:02:48.679Z,9.80
2022-09-09T08:05:20.486Z,10.80
2022-09-09T08:07:52.395Z,10.45
2022-09-09T08:10:23.863Z,10.07
2022-09-09T08:13:16.891Z,11.43
2022-09-09T08:16:07.923Z,20.75
2022-09-09T08:18:39.983Z,16.52
2022-09-09T08:21:16.045Z,13.27
2022-09-09T08:23:52.471Z,12.85
2022-09-09T08:26:30.034Z,14.75
2022-09-09T08:29:02.715Z,15.80
2022-09-09T08:31:42.108Z,14.65
2022-09-09T08:34:41.209Z,13.50
2022-09-09T08:37:23.964Z,13.30
2022-09-09T08:40:14.560Z,12.70
2022-09-09T08:42:54.337Z,10.43
2022-09-09T08:45:37.181Z,10.40
2022-09-09T08:51:20.190Z,10.85
2022-09-09T08:53:57.672Z,13.90
2022-09-09T08:56:34.233Z,12.20
2022-09-09T08:59:07.573Z,9.55
2022-09-09T09:05:22.466Z,11.93
2022-09-09T09:08:04.572Z,11.43
2022-09-09T09:10:51.316Z,11.90
2022-09-09T09:14:08.552Z,11.32
2022-09-09T09:16:53.877Z,10.48
2022-09-09T09:19:25.455Z,11.40
2022-09-09T09:22:36.463Z,12.60
2022-09-09T09:25:20.244Z,11.35
2022-09-09T09:28:26.571Z,10.63
2022-09-09T09:31:09.180Z,9.60
2022-09-09T09:33:55.072Z,10.27
2022-09-09T09:36:54.858Z,9.55
2022-09-09T09:42:23.929Z,10.13
2022-09-09T09:47:46.609Z,9.93
2022-09-09T09:50:23.071Z,9.73
2022-09-09T09:53:06.299Z,8.32
2022-09-09T09:55:55.367Z,10.00
2022-09-09T09:59:40.236Z,9.98
2022-09-09T10:02:30.423Z,12.48
2022-09-09T10:05:26.310Z,11.88
2022-09-09T10:08:11.566Z,10.20
2022-09-09T10:10:48.081Z,9.95
2022-09-09T10:13:51.822Z,8.85
2022-09-09T10:16:41.129Z,8.98
2022-09-09T10:19:33.878Z,9.30
2022-09-09T10:22:36.525Z,9.75
2022-09-09T10:25:39.731Z,9.98
2022-09-09T10:28:55.084Z,10.43
2022-09-09T10:31:34.937Z,10.90
2022-09-09T10:35:06.976Z,10.75
2022-09-09T10:37:58.081Z,10.70
2022-09-09T10:41:03.894Z,9.93
2022-09-09T10:44:21.743Z,9.48
2022-09-09T10:47:31.453Z,9.90
2022-09-09T10:50:02.049Z,8.70
2022-09-09T10:53:04.687Z,10.65
2022-09-09T10:59:19.829Z,8.75
2022-09-09T11:02:23.082Z,9.10
2022-09-09T11:05:13.171Z,8.65
2022-09-09T11:11:29.165Z,10.05
2022-09-09T11:14:28.746Z,11.88
2022-09-09T11:17:09.859Z,9.20
2022-09-09T11:19:46.173Z,10.07
2022-09-09T11:22:31.563Z,10.02
2022-09-09T11:25:09.084Z,8.80
2022-09-09T11:28:12.279Z,10.05
2022-09-09T11:31:22.578Z,9.35
2022-09-09T11:34:17.629Z,8.05
2022-09-09T11:37:03.284Z,8.95
2022-09-09T11:39:34.245Z,8.75
2022-09-09T11:42:16.589Z,9.27
2022-09-09T11:44:47.676Z,10.68
2022-09-09T11:47:31.611Z,9.70
2022-09-09T11:50:32.685Z,8.75
2022-09-09T11:53:25.102Z,9.93
2022-09-09T11:56:11.786Z,8.88
2022-09-09T11:59:05.825Z,10.13
2022-09-09T12:01:36.810Z,8.85
2022-09-09T12:04:19.864Z,10.43
2022-09-09T12:06:56.352Z,8.68
2022-09-09T12:09:55.350Z,9.05
2022-09-09T12:15:24.756Z,10.43
2022-09-09T12:18:03.576Z,8.32
2022-09-09T12:21:04.194Z,9.93
2022-09-09T12:24:12.795Z,8.85
2022-09-09T12:27:15.215Z,8.65
2022-09-09T12:30:29.052Z,9.85
2022-09-09T12:33:21.433Z,9.13
2022-09-09T12:35:58.814Z,9.32
2022-09-09T12:38:43.210Z,9.20
2022-09-09T12:41:31.291Z,8.20
2022-09-09T12:44:11.176Z,9.35
2022-09-09T12:46:51.472Z,8.77
2022-09-09T12:49:29.551Z,9.70
2022-09-09T12:52:02.515Z,8.07
2022-09-09T12:54:33.212Z,8.57
2022-09-09T12:57:04.067Z,7.78
2022-09-09T12:59:44.315Z,8.52
2022-09-09T13:02:30.253Z,8.57
2022-09-09T13:05:31.061Z,8.98
2022-09-09T13:08:12.442Z,10.35
2022-09-09T13:11:05.616Z,8.48
2022-09-09T13:13:43.793Z,9.07
2022-09-09T13:16:43.789Z,8.23
2022-09-09T13:19:23.916Z,9.20
2022-09-09T13:21:55.419Z,8.27
2022-09-09T13:25:21.777Z,8.27
2022-09-09T13:28:09.178Z,8.90
2022-09-09T13:30:46.495Z,8.73
2022-09-09T13:33:37.256Z,8.98
2022-09-09T13:36:17.019Z,8.68
2022-09-09T13:38:57.675Z,9.43
2022-09-09T13:41:40.350Z,9.38
2022-09-09T13:44:26.528Z,8.65
2022-09-09T13:47:22.570Z,8.23
2022-09-09T13:49:56.884Z,10.32
2022-09-09T13:55:13.412Z,10.50
2022-09-09T13:57:58.077Z,10.13
2022-09-09T14:00:31.819Z,8.30
2022-09-09T14:05:40.624Z,11.38
2022-09-09T14:08:28.703Z,10.07
2022-09-09T14:11:00.690Z,11.02
2022-09-09T14:13:31.792Z,8.10
2022-09-09T14:16:03.020Z,9.68
2022-09-09T14:18:34.101Z,9.80
2022-09-09T14:21:05.290Z,10.35
2022-09-09T14:23:42.185Z,12.15
2022-09-09T14:26:39.472Z,11.38
2022-09-09T14:29:11.474Z,8.65
2022-09-09T14:31:43.276Z,12.05
2022-09-09T14:34:35.079Z,8.68
2022-09-09T14:37:06.767Z,8.52
2022-09-09T14:39:39.329Z,9.40
2022-09-09T14:42:13.462Z,9.50
2022-09-09T14:44:44.925Z,9.65
2022-09-09T14:47:16.791Z,8.82
2022-09-09T14:50:07.567Z,9.20
2022-09-09T14:52:39.289Z,10.02
2022-09-09T14:55:10.930Z,12.07
2022-09-09T14:57:43.689Z,8.63
2022-09-09T15:00:17.544Z,8.88
2022-09-09T15:02:51.541Z,10.55
2022-09-09T15:05:24.869Z,11.18
2022-09-09T15:07:56.777Z,10.05
2022-09-09T15:10:49.799Z,10.90
2022-09-09T15:13:21.964Z,11.90
2022-09-09T15:15:53.101Z,9.65
2022-09-09T15:18:25.003Z,10.32
2022-09-09T15:20:57.662Z,10.32
2022-09-09T15:23:57.221Z,10.05
2022-09-09T15:26:30.825Z,8.18
2022-09-09T15:29:02.099Z,9.85
2022-09-09T15:31:58.673Z,8.40
2022-09-09T15:34:32.373Z,9.02
2022-09-09T15:40:34.742Z,11.68
2022-09-09T15:43:08.055Z,10.02
2022-09-09T15:46:08.039Z,10.75
2022-09-09T15:48:40.975Z,8.98
2022-09-09T15:54:01.928Z,8.40
2022-09-09T15:56:34.963Z,9.15
2022-09-09T15:59:08.658Z,8.40
2022-09-09T16:02:05.123Z,10.18
2022-09-09T16:04:37.630Z,8.32
2022-09-09T16:07:29.178Z,10.23
2022-09-09T16:10:20.128Z,10.85
2022-09-09T16:12:52.168Z,10.32
2022-09-09T16:18:39.165Z,8.95
2022-09-09T16:21:13.517Z,9.20
2022-09-09T16:23:49.013Z,10.23
2022-09-09T16:26:44.886Z,9.60
2022-09-09T16:29:21.672Z,8.60
2022-09-09T16:32:01.258Z,9.43
2022-09-09T16:34:54.286Z,8.73
2022-09-09T16:37:31.453Z,9.47
2022-09-09T16:40:23.140Z,7.97
2022-09-09T16:43:00.408Z,9.05
2022-09-09T16:45:34.379Z,8.38
2022-09-09T16:48:25.353Z,9.75
2022-09-09T16:50:56.381Z,8.82
2022-09-09T16:53:28.269Z,9.27
2022-09-09T16:56:01.342Z,8.97
2022-09-09T16:58:36.466Z,8.60
2022-09-09T17:01:28.761Z,8.55
2022-09-09T17:04:04.586Z,8.50
2022-09-09T17:06:57.261Z,8.10
2022-09-09T17:09:31.240Z,12.97
2022-09-09T17:12:07.157Z,8.95
2022-09-09T17:14:41.664Z,9.93
2022-09-09T17:17:30.660Z,8.48
2022-09-09T17:20:02.996Z,10.48
2022-09-09T17:22:37.588Z,8.10
2022-09-09T17:25:11.574Z,9.93
2022-09-09T17:27:46.419Z,8.82
2022-09-09T17:30:18.682Z,8.93
2022-09-09T17:39:09.637Z,8.95
2022-09-09T17:41:43.173Z,8.98
2022-09-09T17:44:14.021Z,9.55
2022-09-09T17:49:38.841Z,7.57
2022-09-09T17:52:09.849Z,9.45
2022-09-09T17:54:41.687Z,9.70
2022-09-09T17:57:36.692Z,9.20
2022-09-09T18:00:20.978Z,9.15
2022-09-09T18:03:18.723Z,7.68
2022-09-09T18:05:51.391Z,8.25
2022-09-09T18:08:22.207Z,9.50
2022-09-09T18:10:59.400Z,8.88
2022-09-09T18:13:30.810Z,8.98
2022-09-09T18:16:05.196Z,8.32
2022-09-09T18:18:37.495Z,9.20
2022-09-09T18:21:10.744Z,9.65
2022-09-09T18:24:07.011Z,8.70
2022-09-09T18:26:59.680Z,8.85
2022-09-09T18:29:31.036Z,8.00
2022-09-09T18:32:01.501Z,9.25
2022-09-09T18:37:16.945Z,8.57
2022-09-09T18:39:48.374Z,8.00
2022-09-09T18:42:42.783Z,8.48
2022-09-09T18:45:13.193Z,10.98
2022-09-09T18:47:44.192Z,8.50
2022-09-09T18:50:14.978Z,9.50
2022-09-09T18:52:45.502Z,9.18
2022-09-09T18:55:16.085Z,8.70
2022-09-09T18:57:46.980Z,9.05
2022-09-09T19:00:18.313Z,8.27
2022-09-09T19:02:54.107Z,7.68
2022-09-09T19:05:24.895Z,8.10
2022-09-09T19:07:55.807Z,8.27
2022-09-09T19:10:26.348Z,7.80
2022-09-09T19:12:57.013Z,9.07
2022-09-09T19:15:27.865Z,8.43
2022-09-09T19:18:01.710Z,9.05
2022-09-09T19:20:54.376Z,9.02
2022-09-09T19:26:56.465Z,7.28
2022-09-09T19:29:34.256Z,7.65
2022-09-09T19:37:41.499Z,7.90
2022-09-09T19:40:12.583Z,9.50
2022-09-09T19:42:43.641Z,8.75
2022-09-09T19:45:14.393Z,7.72
2022-09-09T19:47:45.647Z,8.23
2022-09-09T19:50:16.570Z,8.95
2022-09-09T19:52:47.209Z,7.72
2022-09-09T19:55:18.269Z,8.05
2022-09-09T19:57:48.820Z,8.25
2022-09-09T20:00:20.476Z,8.60
2022-09-09T20:03:15.215Z,9.57
2022-09-09T20:05:43.482Z,7.57
2022-09-09T20:08:14.300Z,8.75
2022-09-09T20:10:53.850Z,9.55
2022-09-09T20:16:31.653Z,9.10
2022-09-09T20:19:05.464Z,9.38
2022-09-09T20:21:47.055Z,9.38
2022-09-09T20:24:21.030Z,8.55
2022-09-09T20:26:52.080Z,8.10
2022-09-09T20:29:22.903Z,8.43
2022-09-09T20:31:54.787Z,8.38
2022-09-09T20:34:28.871Z,8.30
2022-09-09T20:37:03.800Z,8.63
2022-09-09T20:39:34.639Z,9.65
2022-09-09T20:42:06.485Z,8.60
2022-09-09T20:44:37.122Z,8.95
2022-09-09T20:47:08.336Z,7.72
2022-09-09T20:49:39.078Z,8.25
2022-09-09T20:52:12.239Z,8.60
2022-09-09T20:57:26.816Z,9.00
2022-09-09T20:59:57.602Z,8.75
2022-09-09T21:02:28.557Z,8.07
2022-09-09T21:04:59.264Z,8.80
2022-09-09T21:07:31.286Z,8.43
2022-09-09T21:10:03.392Z,10.07
2022-09-09T21:12:34.072Z,8.73
2022-09-09T21:15:05.262Z,10.38
2022-09-09T21:17:36.303Z,7.65
2022-09-09T21:20:08.033Z,7.63
2022-09-09T21:22:38.810Z,8.70
2022-09-09T21:25:10.658Z,7.43
2022-09-09T21:27:41.590Z,8.65
2022-09-09T21:30:13.002Z,7.97
2022-09-09T21:32:45.298Z,8.95
2022-09-09T21:35:15.975Z,9.45
2022-09-09T21:37:46.775Z,7.97
2022-09-09T21:40:18.059Z,8.48
2022-09-09T21:42:50.300Z,8.15
2022-09-09T21:45:25.030Z,8.52
2022-09-09T21:47:56.510Z,8.05
2022-09-09T21:50:28.658Z,7.90
2022-09-09T21:52:59.422Z,8.73
2022-09-09T21:55:30.244Z,9.40
2022-09-09T21:58:01.771Z,9.82
2022-09-09T22:00:33.210Z,9.13
2022-09-09T22:03:04.951Z,7.97
2022-09-09T22:05:36.275Z,7.40
2022-09-09T22:08:07.952Z,7.95
2022-09-09T22:10:41.750Z,8.93
2022-09-09T22:13:15.689Z,9.50
2022-09-09T22:15:48.477Z,8.02
2022-09-09T22:18:19.828Z,9.50
2022-09-09T22:23:33.893Z,8.65
2022-09-09T22:26:04.855Z,8.30
2022-09-09T22:28:36.624Z,7.95
2022-09-09T22:31:07.807Z,7.72
2022-09-09T22:33:38.499Z,9.18
2022-09-09T22:36:29.789Z,8.43
2022-09-09T22:39:00.854Z,9.52
2022-09-09T22:41:31.685Z,8.55
2022-09-09T22:44:02.221Z,11.00
2022-09-09T22:46:34.020Z,8.43
2022-09-09T22:49:04.902Z,8.95
2022-09-09T22:51:38.405Z,8.75
2022-09-09T22:54:29.804Z,8.68
2022-09-09T22:57:00.989Z,9.65
2022-09-09T22:59:32.429Z,7.78
2022-09-09T23:02:03.539Z,8.30
2022-09-09T23:04:54.233Z,9.02
2022-09-09T23:07:24.756Z,7.78
2022-09-09T23:09:55.432Z,8.38
2022-09-09T23:12:26.776Z,8.77
2022-09-09T23:15:18.491Z,8.02
2022-09-09T23:17:49.282Z,8.65
2022-09-09T23:20:23.813Z,8.18
2022-09-09T23:22:55.771Z,8.00
2022-09-09T23:25:26.454Z,7.82
2022-09-09T23:27:57.304Z,10.07
2022-09-09T23:30:47.571Z,8.45
2022-09-09T23:33:18.058Z,8.43
2022-09-09T23:36:00.828Z,8.00
2022-09-09T23:38:32.753Z,11.40
2022-09-09T23:41:04.352Z,8.60
2022-09-09T23:43:40.797Z,8.90
2022-09-09T23:48:46.961Z,9.05
2022-09-09T23:51:18.764Z,9.25
2022-09-09T23:53:52.305Z,8.68
2022-09-09T23:58:55.290Z,8.38
